Time;durP1;ratioP1;P1;durP2;ratioP2;P2;SDS_P1;SDS_P2;PMS_P1;PMS_P2;Temp;Humidity;BMP_temperature;BMP_pressure;BME280_temperature;BME280_humidity;BME280_pressure;Samples;Min_cycle;Max_cycle;Signal;HPM_P1;HPM_P2
2021/05/03 00:00:27;;;;;;;22.27;11.53;;;;;;;12.60;82.99;99176.75;1806310;79;21069;-72
2021/05/03 00:02:54;;;;;;;26.10;11.93;;;;;;;12.60;83.12;99171.95;1782541;79;21393;-71
2021/05/03 00:05:25;;;;;;;24.67;11.33;;;;;;;12.60;83.13;99173.27;1788199;79;21561;-72
2021/05/03 00:07:53;;;;;;;24.95;10.82;;;;;;;12.59;83.12;99172.94;1782806;79;20884;-72
2021/05/03 00:10:22;;;;;;;23.50;12.37;;;;;;;12.58;83.13;99163.34;1781025;79;21113;-72
2021/05/03 00:12:50;;;;;;;21.25;11.03;;;;;;;12.56;83.17;99160.03;1783397;79;21814;-73
2021/05/03 00:15:19;;;;;;;21.30;11.90;;;;;;;12.55;83.19;99161.03;1782683;79;21074;-71
2021/05/03 00:17:47;;;;;;;27.55;11.80;;;;;;;12.53;83.22;99159.02;1794369;79;21148;-72
2021/05/03 00:20:15;;;;;;;22.00;11.15;;;;;;;12.51;83.27;99157.86;1791771;79;21138;-72
2021/05/03 00:22:44;;;;;;;19.17;10.85;;;;;;;12.49;83.30;99163.83;1800701;79;21873;-72
2021/05/03 00:25:12;;;;;;;24.30;11.88;;;;;;;12.47;83.34;99169.78;1782639;79;21641;-72
2021/05/03 00:27:39;;;;;;;25.65;11.75;;;;;;;12.46;83.39;99166.81;1783383;79;21408;-72
2021/05/03 00:30:08;;;;;;;24.63;12.20;;;;;;;12.45;83.39;99160.33;1811185;79;21125;-72
2021/05/03 00:32:37;;;;;;;28.52;12.37;;;;;;;12.43;83.41;99157.84;1803677;78;21097;-74
2021/05/03 00:35:05;;;;;;;22.77;11.33;;;;;;;12.42;83.45;99155.36;1774750;77;22488;-72
2021/05/03 00:37:33;;;;;;;21.30;11.03;;;;;;;12.40;83.46;99160.83;1828246;78;21809;-72
2021/05/03 00:40:02;;;;;;;26.30;11.68;;;;;;;12.38;83.51;99169.44;1842553;77;21194;-71
2021/05/03 00:42:29;;;;;;;25.27;11.45;;;;;;;12.36;83.53;99170.59;1845121;77;21081;-72
2021/05/03 00:44:57;;;;;;;25.45;12.25;;;;;;;12.35;83.61;99169.73;1823336;77;21101;-72
2021/05/03 00:47:25;;;;;;;25.20;11.95;;;;;;;12.36;83.64;99170.59;1820136;78;22501;-72
2021/05/03 00:49:53;;;;;;;25.02;12.13;;;;;;;12.35;83.66;99173.72;1746089;78;21176;-72
2021/05/03 00:52:22;;;;;;;27.07;11.70;;;;;;;12.33;83.67;99166.44;1826654;77;21149;-72
2021/05/03 00:54:49;;;;;;;22.10;11.63;;;;;;;12.34;83.70;99170.73;1839899;77;21050;-72
2021/05/03 00:57:17;;;;;;;25.32;12.20;;;;;;;12.32;83.67;99172.72;1789599;80;21401;-71
2021/05/03 00:59:45;;;;;;;23.52;11.75;;;;;;;12.28;83.69;99177.52;1832949;77;22040;-72
2021/05/03 01:02:12;;;;;;;25.35;12.10;;;;;;;12.26;83.73;99174.22;1802112;78;21652;-71
2021/05/03 01:04:40;;;;;;;24.32;11.75;;;;;;;12.23;83.75;99183.78;1800042;77;21416;-72
2021/05/03 01:07:08;;;;;;;25.08;11.80;;;;;;;12.22;83.82;99178.66;1841060;77;21121;-71
2021/05/03 01:09:36;;;;;;;24.40;12.00;;;;;;;12.19;83.85;99184.28;1807537;78;21093;-72
2021/05/03 01:12:06;;;;;;;15.83;10.18;;;;;;;12.16;83.87;99180.15;1828433;78;22142;-71
2021/05/03 01:14:33;;;;;;;20.50;11.57;;;;;;;12.15;83.89;99179.78;1813574;77;21176;-71
2021/05/03 01:17:01;;;;;;;23.40;12.45;;;;;;;12.12;83.92;99168.20;1784817;80;21154;-72
2021/05/03 01:19:30;;;;;;;23.95;12.78;;;;;;;12.12;83.99;99176.64;1820510;77;21133;-72
2021/05/03 01:21:57;;;;;;;23.35;11.80;;;;;;;12.11;84.04;99174.49;1813871;78;21181;-71
2021/05/03 01:24:25;;;;;;;26.87;12.20;;;;;;;12.10;84.08;99167.55;1806412;77;22033;-71
2021/05/03 01:26:52;;;;;;;23.83;12.35;;;;;;;12.09;84.09;99185.73;1797800;77;21073;-71
2021/05/03 01:29:20;;;;;;;22.67;12.07;;;;;;;12.07;84.12;99187.73;1795758;80;21495;-72
2021/05/03 01:31:49;;;;;;;23.47;12.18;;;;;;;12.07;84.16;99187.73;1772466;78;21204;-71
2021/05/03 01:34:17;;;;;;;21.40;11.75;;;;;;;12.08;84.24;99187.23;1792835;78;21077;-72
2021/05/03 01:36:46;;;;;;;22.73;13.10;;;;;;;12.08;84.29;99187.23;1786236;79;22100;-71
2021/05/03 01:39:17;;;;;;;24.60;12.28;;;;;;;12.08;84.29;99190.70;1800603;79;21615;-72
2021/05/03 01:41:45;;;;;;;20.25;12.47;;;;;;;12.09;84.29;99182.27;1814719;79;21105;-71
2021/05/03 01:44:15;;;;;;;27.77;12.80;;;;;;;12.08;84.27;99181.94;1812206;79;21045;-71
2021/05/03 01:46:44;;;;;;;23.32;12.20;;;;;;;12.07;84.22;99175.81;1807246;79;21113;-70
2021/05/03 01:49:12;;;;;;;23.15;11.08;;;;;;;12.07;84.20;99173.17;1784689;79;22029;-71
2021/05/03 01:51:39;;;;;;;23.77;12.35;;;;;;;12.06;84.16;99171.48;1782613;79;21728;-71
2021/05/03 01:54:08;;;;;;;20.57;12.73;;;;;;;12.03;84.14;99171.81;1782665;79;21101;-71
2021/05/03 01:56:35;;;;;;;19.95;12.18;;;;;;;12.02;84.11;99174.95;1799549;79;21568;-71
2021/05/03 01:59:06;;;;;;;26.93;12.07;;;;;;;11.99;84.07;99172.64;1813380;79;21141;-72
2021/05/03 02:01:37;;;;;;;24.63;12.90;;;;;;;11.98;84.08;99168.84;1783081;79;22124;-71
2021/05/03 02:04:09;;;;;;;22.45;12.65;;;;;;;11.95;84.10;99173.93;1782978;79;21800;-71
2021/05/03 02:06:37;;;;;;;22.77;12.65;;;;;;;11.92;84.09;99170.29;1789167;79;21584;-72
2021/05/03 02:09:10;;;;;;;24.40;13.25;;;;;;;11.91;84.09;99171.28;1790662;79;21117;-72
2021/05/03 02:11:39;;;;;;;23.62;12.37;;;;;;;11.90;84.12;99172.27;1785864;79;21120;-72
2021/05/03 02:14:09;;;;;;;20.65;12.05;;;;;;;11.88;84.09;99180.05;1791230;79;21588;-72
2021/05/03 02:16:36;;;;;;;20.60;11.73;;;;;;;11.85;84.14;99185.14;1784101;79;21117;-73
2021/05/03 02:19:04;;;;;;;25.35;13.08;;;;;;;11.83;84.15;99185.80;1792290;79;21153;-72
2021/05/03 02:21:32;;;;;;;24.10;13.13;;;;;;;11.82;84.17;99189.93;1784742;79;21070;-72
2021/05/03 02:23:59;;;;;;;21.87;13.20;;;;;;;11.80;84.21;99184.80;1789272;79;21379;-71
2021/05/03 02:26:27;;;;;;;21.80;12.95;;;;;;;11.79;84.24;99191.05;1776722;79;22484;-73
2021/05/03 02:28:54;;;;;;;27.20;13.10;;;;;;;11.81;84.30;99197.53;1796700;79;21133;-72
2021/05/03 02:31:22;;;;;;;24.52;13.40;;;;;;;11.81;84.29;99203.66;1783181;79;21065;-72
2021/05/03 02:33:49;;;;;;;25.50;12.88;;;;;;;11.81;84.29;99198.36;1813599;78;21066;-71
2021/05/03 02:36:18;;;;;;;27.48;13.50;;;;;;;11.81;84.30;99197.03;1808959;78;21117;-72
2021/05/03 02:38:46;;;;;;;25.08;12.95;;;;;;;11.81;84.32;99203.66;1813501;78;22561;-72
2021/05/03 02:41:14;;;;;;;28.10;13.83;;;;;;;11.82;84.36;99200.52;1800378;78;21575;-71
2021/05/03 02:43:41;;;;;;;26.52;14.18;;;;;;;11.82;84.38;99200.52;1804846;78;21085;-72
2021/05/03 02:46:10;;;;;;;27.32;13.60;;;;;;;11.84;84.38;99203.82;1823300;78;21549;-73
2021/05/03 02:48:38;;;;;;;24.20;13.10;;;;;;;11.81;84.36;99210.27;1806859;78;21034;-73
2021/05/03 02:51:06;;;;;;;26.95;13.45;;;;;;;11.81;84.39;99215.56;1784187;78;22120;-73
2021/05/03 02:53:34;;;;;;;25.50;13.35;;;;;;;11.80;84.40;99216.55;1805124;78;22608;-72
2021/05/03 02:56:01;;;;;;;26.20;14.10;;;;;;;11.80;84.42;99222.34;1795955;78;21083;-72
2021/05/03 02:58:29;;;;;;;25.23;13.35;;;;;;;11.81;84.42;99221.34;1797318;77;21525;-73
2021/05/03 03:00:56;;;;;;;28.40;14.03;;;;;;;11.81;84.36;99222.17;1804165;78;21116;-72
2021/05/03 03:03:23;;;;;;;24.47;13.65;;;;;;;11.81;84.30;99236.72;1802549;78;22834;-73
2021/05/03 03:05:51;;;;;;;22.00;13.22;;;;;;;11.81;84.29;99238.05;1785761;78;21180;-72
2021/05/03 03:08:19;;;;;;;22.87;13.60;;;;;;;11.81;84.26;99242.02;1777211;80;21049;-73
2021/05/03 03:10:46;;;;;;;22.93;13.32;;;;;;;11.82;84.27;99250.28;1785248;80;21136;-71
2021/05/03 03:13:13;;;;;;;28.38;13.58;;;;;;;11.85;84.26;99247.80;1766596;80;21171;-71
2021/05/03 03:15:41;;;;;;;24.18;13.40;;;;;;;11.87;84.27;99248.01;1787470;80;22583;-71
2021/05/03 03:18:08;;;;;;;27.65;13.25;;;;;;;11.91;84.29;99244.55;1775143;80;21163;-71
2021/05/03 03:20:36;;;;;;;25.48;13.60;;;;;;;11.94;84.30;99234.46;1777854;78;21103;-72
2021/05/03 03:23:04;;;;;;;23.32;13.65;;;;;;;11.98;84.35;99235.82;1756998;80;21244;-71
2021/05/03 03:25:32;;;;;;;26.68;14.13;;;;;;;12.02;84.34;99235.83;1758650;80;21075;-72
2021/05/03 03:27:59;;;;;;;23.80;13.68;;;;;;;12.07;84.38;99238.02;1757819;81;22049;-71
2021/05/03 03:30:27;;;;;;;20.55;12.73;;;;;;;12.11;84.38;99248.61;1788306;80;21163;-71
2021/05/03 03:32:54;;;;;;;22.30;13.83;;;;;;;12.16;84.39;99250.76;1775460;80;21215;-72
2021/05/03 03:35:22;;;;;;;23.55;13.88;;;;;;;12.18;84.41;99245.66;1805384;78;21030;-71
2021/05/03 03:37:51;;;;;;;24.18;13.70;;;;;;;12.21;84.47;99244.51;1750133;80;21094;-71
2021/05/03 03:40:18;;;;;;;24.98;13.83;;;;;;;12.25;84.51;99260.39;1728380;81;23467;-71
2021/05/03 03:42:46;;;;;;;27.30;15.15;;;;;;;12.28;84.58;99266.22;1788265;78;21137;-71
2021/05/03 03:45:15;;;;;;;27.52;15.00;;;;;;;12.33;84.67;99269.70;1768083;80;21589;-71
2021/05/03 03:47:42;;;;;;;23.98;13.05;;;;;;;12.39;84.73;99278.83;1787779;80;21057;-72
2021/05/03 03:50:11;;;;;;;21.77;12.03;;;;;;;12.47;84.84;99278.38;1815925;78;21074;-71
2021/05/03 03:52:40;;;;;;;24.98;12.58;;;;;;;12.56;85.00;99277.41;1781616;80;23023;-72
2021/05/03 03:55:10;;;;;;;19.25;10.28;;;;;;;12.68;85.11;99275.28;1751249;80;21102;-73
2021/05/03 03:57:37;;;;;;;19.25;11.10;;;;;;;12.80;85.32;99279.27;1789065;80;21150;-72
2021/05/03 04:00:06;;;;;;;20.43;11.12;;;;;;;12.95;85.44;99282.13;1782701;80;21068;-72
2021/05/03 04:02:36;;;;;;;20.20;9.63;;;;;;;13.12;85.51;99278.97;1764295;80;21109;-72
2021/05/03 04:07:57;;;;;;;14.10;9.08;;;;;;;13.55;84.95;99283.16;1888350;76;22757;-72
2021/05/03 04:10:35;;;;;;;16.75;8.80;;;;;;;13.67;83.95;99290.27;1856450;76;21137;-71
2021/05/03 04:13:15;;;;;;;13.53;7.60;;;;;;;13.82;83.00;99289.10;1856874;75;22054;-72
2021/05/03 04:21:12;;;;;;;18.10;7.40;;;;;;;14.18;78.92;99311.55;1779691;79;21161;-74
2021/05/03 04:23:49;;;;;;;12.15;6.80;;;;;;;14.28;78.77;99313.54;1780811;80;21115;-74
2021/05/03 04:26:03;;;;;;;15.63;6.62;;;;;;;14.34;78.14;99314.66;1807217;78;22954;-73
2021/05/03 04:28:30;;;;;;;11.35;6.20;;;;;;;14.38;77.16;99321.31;1790826;78;21134;-73
2021/05/03 04:30:58;;;;;;;12.82;5.97;;;;;;;14.42;75.92;99322.61;1791217;78;21122;-73
2021/05/03 04:33:26;;;;;;;8.70;5.40;;;;;;;14.46;74.51;99328.42;1790320;80;21542;-73
2021/05/03 04:35:54;;;;;;;11.35;5.60;;;;;;;14.50;74.27;99327.09;1792211;78;21162;-73
2021/05/03 04:38:21;;;;;;;11.20;5.60;;;;;;;14.54;74.06;99329.22;1792176;79;22554;-73
2021/05/03 04:40:48;;;;;;;8.43;5.42;;;;;;;14.57;73.23;99333.36;1795478;80;21141;-73
2021/05/03 04:43:16;;;;;;;8.88;5.35;;;;;;;14.59;72.69;99332.70;1795646;80;21014;-73
2021/05/03 04:45:43;;;;;;;8.45;4.67;;;;;;;14.60;72.25;99328.55;1791247;79;21157;-73
2021/05/03 04:48:11;;;;;;;8.30;4.95;;;;;;;14.63;71.72;99326.03;1786310;79;21620;-73
2021/05/03 04:50:40;;;;;;;8.45;4.90;;;;;;;14.64;70.78;99322.37;1788802;79;22025;-77
2021/05/03 04:53:07;;;;;;;7.30;3.83;;;;;;;14.68;70.91;99328.19;1799767;79;21130;-74
2021/05/03 04:55:35;;;;;;;6.40;4.03;;;;;;;14.69;69.51;99321.87;1797937;78;21162;-74
2021/05/03 04:58:03;;;;;;;8.25;4.37;;;;;;;14.72;69.28;99327.66;1791155;80;21173;-74
2021/05/03 05:00:31;;;;;;;5.78;3.70;;;;;;;14.76;69.20;99336.09;1803635;79;21485;-76
2021/05/03 05:02:58;;;;;;;6.50;3.90;;;;;;;14.79;68.82;99323.30;1791298;79;22477;-74
2021/05/03 05:05:28;;;;;;;6.35;3.87;;;;;;;14.82;68.79;99337.56;1792551;78;21137;-75
2021/05/03 05:07:55;;;;;;;5.83;4.03;;;;;;;14.83;67.83;99337.89;1793779;78;21185;-74
2021/05/03 05:10:23;;;;;;;5.85;3.83;;;;;;;14.87;68.08;99332.57;1790311;80;21069;-75
2021/05/03 05:12:50;;;;;;;7.85;4.35;;;;;;;14.92;67.89;99336.52;1799993;78;21419;-74
2021/05/03 05:15:17;;;;;;;6.55;4.35;;;;;;;14.98;67.95;99337.98;1794136;78;22900;-74
2021/05/03 05:17:48;;;;;;;6.95;3.98;;;;;;;15.03;67.59;99334.28;1796971;78;21102;-74
2021/05/03 05:20:19;;;;;;;5.50;4.05;;;;;;;15.08;68.09;99333.27;1791686;78;21030;-74
2021/05/03 05:22:47;;;;;;;5.53;3.70;;;;;;;15.14;67.66;99341.86;1753621;80;21116;-75
2021/05/03 05:25:15;;;;;;;5.72;3.90;;;;;;;15.16;67.25;99346.52;1789175;79;21636;-75
2021/05/03 05:27:42;;;;;;;4.97;3.60;;;;;;;15.17;66.62;99340.20;1794986;80;22058;-74
2021/05/03 05:30:11;;;;;;;5.33;3.40;;;;;;;15.18;66.44;99343.68;1794171;79;21098;-75
2021/05/03 05:32:38;;;;;;;5.85;3.22;;;;;;;15.18;66.51;99347.17;1775408;79;21134;-76
2021/05/03 05:35:08;;;;;;;7.17;3.37;;;;;;;15.21;66.80;99351.80;1798821;79;21181;-76
2021/05/03 05:37:36;;;;;;;6.10;3.22;;;;;;;15.22;66.50;99347.63;1788566;79;21130;-76
2021/05/03 05:40:05;;;;;;;5.12;3.30;;;;;;;15.22;65.83;99338.32;1791934;79;22684;-77
2021/05/03 05:42:33;;;;;;;3.90;3.17;;;;;;;15.20;65.65;99334.19;1800871;79;21090;-74
2021/05/03 05:45:01;;;;;;;6.37;3.30;;;;;;;15.19;65.87;99350.66;1787363;79;21508;-76
2021/05/03 05:47:30;;;;;;;5.35;3.08;;;;;;;15.16;65.16;99355.00;1790577;79;21943;-75
2021/05/03 05:49:58;;;;;;;10.70;3.10;;;;;;;15.09;64.74;99352.21;1779539;79;21525;-74
2021/05/03 05:52:27;;;;;;;5.12;3.05;;;;;;;15.04;64.71;99359.05;1783844;80;22258;-75
2021/05/03 05:54:55;;;;;;;5.28;3.20;;;;;;;14.99;64.79;99373.38;1777122;79;21058;-75
2021/05/03 05:57:22;;;;;;;4.10;3.10;;;;;;;14.95;64.88;99386.68;1794783;79;21074;-73
2021/05/03 05:59:51;;;;;;;5.12;3.70;;;;;;;14.92;64.97;99392.36;1789831;79;21082;-75
2021/05/03 06:02:18;;;;;;;4.62;3.30;;;;;;;14.88;65.17;99402.02;1796225;79;21545;-74
2021/05/03 06:04:45;;;;;;;5.15;3.17;;;;;;;14.85;65.52;99413.48;1783635;80;22513;-75
2021/05/03 06:07:13;;;;;;;8.43;3.60;;;;;;;14.79;65.40;99412.86;1784138;79;21074;-74
2021/05/03 06:09:43;;;;;;;4.47;3.05;;;;;;;14.69;64.79;99406.42;1781137;80;21070;-75
2021/05/03 06:12:11;;;;;;;8.83;3.55;;;;;;;14.63;65.31;99411.08;1785061;79;21545;-76
2021/05/03 06:14:38;;;;;;;5.55;3.22;;;;;;;14.57;65.70;99403.31;1785426;79;21133;-76
2021/05/03 06:17:09;;;;;;;4.67;3.33;;;;;;;14.53;66.09;99402.47;1791203;79;21718;-76
2021/05/03 06:19:38;;;;;;;4.85;3.22;;;;;;;14.53;66.41;99414.43;1804818;78;21214;-77
2021/05/03 06:22:06;;;;;;;5.90;3.70;;;;;;;14.53;66.81;99416.59;1788536;79;21126;-75
2021/05/03 06:24:36;;;;;;;5.87;3.55;;;;;;;14.53;67.04;99417.09;1776108;79;21174;-76
2021/05/03 06:27:04;;;;;;;5.58;3.80;;;;;;;14.51;67.23;99411.12;1791790;78;21343;-77
2021/05/03 06:29:32;;;;;;;5.53;3.90;;;;;;;14.52;67.51;99417.59;1794340;78;22049;-76
2021/05/03 06:32:00;;;;;;;7.10;3.77;;;;;;;14.57;67.58;99421.05;1789796;80;21278;-79
2021/05/03 06:34:31;;;;;;;7.00;4.00;;;;;;;14.58;67.73;99416.92;1793033;78;21126;-77
2021/05/03 06:36:59;;;;;;;4.22;3.35;;;;;;;14.58;67.25;99425.39;1791088;78;21145;-77
2021/05/03 06:39:27;;;;;;;5.87;3.47;;;;;;;14.57;67.05;99423.70;1791194;78;21114;-80
2021/05/03 06:41:55;;;;;;;7.22;3.77;;;;;;;14.56;67.26;99419.39;1806825;78;22058;-80
2021/05/03 06:44:23;;;;;;;5.83;3.17;;;;;;;14.57;67.40;99421.05;1794093;79;21655;-80
2021/05/03 06:46:50;;;;;;;6.33;3.67;;;;;;;14.59;67.25;99421.73;1794328;79;21426;-80
2021/05/03 06:49:18;;;;;;;5.53;3.40;;;;;;;14.59;66.68;99426.55;1784581;79;21645;-77
2021/05/03 06:51:46;;;;;;;5.58;3.30;;;;;;;14.58;66.04;99429.37;1792155;80;21474;-79
2021/05/03 06:54:13;;;;;;;7.25;3.30;;;;;;;14.59;66.14;99437.17;1790371;80;22737;-79
2021/05/03 06:56:43;;;;;;;5.35;3.08;;;;;;;14.62;65.62;99431.19;1800896;78;21081;-78
2021/05/03 06:59:11;;;;;;;5.72;2.98;;;;;;;14.62;65.32;99442.64;1785325;79;21058;-78
2021/05/03 07:01:39;;;;;;;5.72;3.30;;;;;;;14.64;64.83;99433.16;1785546;80;21133;-78
2021/05/03 07:04:07;;;;;;;4.80;3.33;;;;;;;14.68;64.61;99439.81;1783845;80;21115;-78
2021/05/03 07:06:35;;;;;;;6.10;2.70;;;;;;;14.72;64.90;99445.94;1786491;79;21816;-78
2021/05/03 07:09:08;;;;;;;3.70;2.40;;;;;;;14.75;64.42;99446.08;1804262;78;21572;-78
2021/05/03 07:11:34;;;;;;;3.65;2.50;;;;;;;14.79;64.67;99450.91;1800739;78;21157;-78
2021/05/03 07:14:03;;;;;;;2.30;2.00;;;;;;;14.86;64.21;99449.70;1819312;78;21065;-76
2021/05/03 07:16:31;;;;;;;2.55;1.80;;;;;;;14.86;61.49;99455.88;1809853;78;21049;-81
2021/05/03 07:18:58;;;;;;;2.12;1.82;;;;;;;14.82;59.73;99438.59;1803976;79;22003;-78
2021/05/03 07:21:26;;;;;;;2.08;1.75;;;;;;;14.81;59.09;99445.41;1792693;80;21098;-80
2021/05/03 07:23:54;;;;;;;4.50;1.87;;;;;;;14.76;58.26;99449.06;1819178;78;21057;-80
2021/05/03 07:26:28;;;;;;;5.47;2.27;;;;;;;14.76;59.07;99455.21;1793663;80;21212;-78
2021/05/03 07:28:56;;;;;;;2.92;1.85;;;;;;;14.79;59.24;99458.88;1794405;78;21180;-78
2021/05/03 07:31:24;;;;;;;2.47;1.95;;;;;;;14.84;59.17;99453.86;1793019;78;22985;-79
2021/05/03 07:33:51;;;;;;;3.42;1.90;;;;;;;14.95;58.80;99449.17;1796613;78;21225;-80
2021/05/03 07:36:19;;;;;;;3.20;1.92;;;;;;;15.05;58.83;99451.12;1784896;78;21090;-79
2021/05/03 07:38:47;;;;;;;4.12;1.70;;;;;;;15.11;57.87;99446.45;1812341;79;21058;-79
2021/05/03 07:41:14;;;;;;;3.08;1.85;;;;;;;15.11;56.77;99443.28;1825346;78;21353;-74
2021/05/03 07:43:42;;;;;;;2.50;1.87;;;;;;;15.12;57.27;99439.63;1803185;79;22978;-74
2021/05/03 07:46:10;;;;;;;3.15;1.75;;;;;;;15.14;56.67;99437.61;1777003;79;21434;-83
2021/05/03 07:48:38;;;;;;;2.65;1.75;;;;;;;15.26;56.45;99449.22;1807732;79;21122;-80
2021/05/03 07:51:05;;;;;;;4.72;2.00;;;;;;;15.29;55.79;99451.52;1809623;78;21157;-79
2021/05/03 07:53:35;;;;;;;2.40;1.80;;;;;;;15.25;56.53;99441.73;1795281;78;21088;-77
2021/05/03 07:56:02;;;;;;;2.75;1.37;;;;;;;15.24;55.81;99437.39;1792760;78;22592;-78
2021/05/03 07:58:30;;;;;;;2.52;1.67;;;;;;;15.29;56.18;99444.86;1792657;80;21125;-74
2021/05/03 08:00:57;;;;;;;2.22;1.75;;;;;;;15.34;56.66;99434.01;1792750;80;21535;-81
2021/05/03 08:03:25;;;;;;;3.22;1.40;;;;;;;15.48;56.63;99439.09;1807625;78;21065;-76
2021/05/03 08:05:54;;;;;;;2.55;1.32;;;;;;;15.66;55.43;99428.20;1809286;79;21117;-78
2021/05/03 08:08:23;;;;;;;1.90;1.50;;;;;;;15.80;55.24;99431.41;1776315;80;22055;-77
2021/05/03 08:10:50;;;;;;;3.10;1.30;;;;;;;15.93;55.14;99432.16;1792786;79;21168;-78
2021/05/03 08:13:17;;;;;;;3.33;1.67;;;;;;;16.10;55.30;99442.97;1773241;78;21129;-77
2021/05/03 08:15:48;;;;;;;4.47;1.60;;;;;;;16.20;53.19;99449.38;1790831;80;21047;-81
2021/05/03 08:18:14;;;;;;;2.05;1.70;;;;;;;16.16;53.07;99453.43;1804621;78;21121;-77
2021/05/03 08:20:42;;;;;;;1.62;1.50;;;;;;;16.14;53.34;99452.28;1770209;80;22505;-77
2021/05/03 08:23:10;;;;;;;3.30;1.30;;;;;;;16.14;52.28;99460.27;1790002;78;21545;-76
2021/05/03 08:25:37;;;;;;;1.80;1.52;;;;;;;16.09;52.88;99451.98;1773907;78;21177;-73
2021/05/03 08:28:07;;;;;;;1.87;1.30;;;;;;;16.07;52.28;99447.84;1789344;78;21152;-70
2021/05/03 08:30:34;;;;;;;1.20;1.10;;;;;;;16.00;50.68;99462.38;1802285;78;21039;-71
2021/05/03 08:33:02;;;;;;;3.40;1.30;;;;;;;15.94;50.26;99465.77;1793562;78;22055;-78
2021/05/03 08:35:29;;;;;;;1.85;1.32;;;;;;;15.90;50.48;99455.13;1793473;78;21149;-74
2021/05/03 08:37:57;;;;;;;3.90;1.25;;;;;;;15.95;51.92;99456.27;1800505;78;21598;-75
2021/05/03 08:40:24;;;;;;;1.77;1.22;;;;;;;16.03;52.42;99451.38;1791839;78;21373;-74
2021/05/03 08:42:53;;;;;;;1.70;1.15;;;;;;;16.15;52.47;99441.95;1805360;78;21058;-74
2021/05/03 08:45:21;;;;;;;1.10;1.00;;;;;;;16.25;50.79;99455.84;1789606;78;22304;-76
2021/05/03 08:48:11;;;;;;;2.87;1.30;;;;;;;16.27;50.85;99448.48;1790210;80;21180;-70
2021/05/03 08:53:19;;;;;;;1.80;1.50;;;;;;;16.33;49.79;99460.78;1789724;79;21058;-71
2021/05/03 08:55:46;;;;;;;1.98;1.30;;;;;;;16.37;49.54;99451.40;1784072;80;21149;-70
2021/05/03 08:58:14;;;;;;;3.95;1.20;;;;;;;16.34;50.36;99461.92;1755286;80;22509;-71
2021/05/03 09:00:43;;;;;;;3.62;1.20;;;;;;;16.46;49.75;99464.46;1778720;79;21094;-71
2021/05/03 09:03:12;;;;;;;2.92;1.40;;;;;;;16.49;50.27;99472.09;1806129;79;21106;-70
2021/05/03 09:05:43;;;;;;;2.15;1.42;;;;;;;16.51;50.24;99476.76;1821757;78;21133;-71
2021/05/03 09:08:26;;;;;;;2.62;1.27;;;;;;;16.40;49.82;99479.02;1823052;78;21161;-72
2021/05/03 09:10:57;;;;;;;1.40;1.00;;;;;;;16.41;50.56;99474.86;1793027;78;22430;-71
2021/05/03 09:13:33;;;;;;;3.00;1.30;;;;;;;16.57;50.15;99475.19;1792571;80;21077;-71
2021/05/03 09:16:21;;;;;;;1.70;1.10;;;;;;;16.72;48.55;99463.24;1792848;80;21073;-70
2021/05/03 09:18:50;;;;;;;3.27;1.25;;;;;;;16.75;48.51;99473.03;1792890;78;21183;-71
2021/05/03 09:21:28;;;;;;;3.92;1.20;;;;;;;16.85;50.31;99492.75;1815077;78;21106;-70
2021/05/03 09:24:09;;;;;;;4.72;1.20;;;;;;;17.00;49.36;99490.92;1796913;79;22965;-70
2021/05/03 09:26:46;;;;;;;3.65;1.50;;;;;;;17.09;50.01;99482.33;1831386;78;21580;-71
2021/05/03 09:29:35;;;;;;;2.52;1.10;;;;;;;17.31;49.65;99476.53;1799138;79;21125;-70
2021/05/03 09:32:20;;;;;;;2.50;1.20;;;;;;;17.46;48.59;99469.30;1801382;79;21066;-71
2021/05/03 09:34:52;;;;;;;2.10;1.35;;;;;;;17.53;47.64;99480.06;1793211;78;21122;-70
2021/05/03 09:37:33;;;;;;;4.08;1.40;;;;;;;17.50;47.60;99485.80;1792765;80;22130;-70
2021/05/03 09:40:12;;;;;;;3.83;1.15;;;;;;;17.35;47.77;99480.47;1797450;78;21090;-71
2021/05/03 09:42:54;;;;;;;4.25;1.40;;;;;;;17.15;48.22;99486.39;1792695;80;21128;-70
2021/05/03 09:45:32;;;;;;;1.30;1.20;;;;;;;16.92;48.85;99505.69;1792841;78;21061;-71
2021/05/03 09:48:00;;;;;;;1.50;1.20;;;;;;;16.71;48.88;99502.92;1793441;78;21137;-70
2021/05/03 09:50:31;;;;;;;2.85;1.30;;;;;;;16.43;48.97;99507.98;1792785;80;22062;-70
2021/05/03 09:53:11;;;;;;;3.22;1.15;;;;;;;16.32;50.04;99527.91;1793246;78;21181;-71
2021/05/03 09:55:43;;;;;;;2.47;1.22;;;;;;;16.31;50.33;99546.23;1797346;79;21105;-70
2021/05/03 09:58:22;;;;;;;2.55;2.10;;;;;;;16.41;51.47;99548.16;1807450;79;21164;-70
2021/05/03 10:00:52;;;;;;;5.28;1.52;;;;;;;16.49;50.15;99550.72;1798192;79;21108;-70
2021/05/03 10:03:36;;;;;;;2.65;1.47;;;;;;;16.36;50.07;99533.19;1810104;78;22502;-70
2021/05/03 10:06:16;;;;;;;2.77;1.40;;;;;;;16.27;50.81;99519.09;1830316;78;21222;-71
2021/05/03 10:08:49;;;;;;;2.17;1.40;;;;;;;16.31;51.12;99523.08;1809303;78;21136;-70
2021/05/03 10:11:16;;;;;;;2.35;1.60;;;;;;;16.40;51.55;99542.47;1800963;79;21076;-70
2021/05/03 10:13:46;;;;;;;3.00;1.50;;;;;;;16.43;51.57;99536.80;1801158;79;21065;-70
2021/05/03 10:16:13;;;;;;;2.77;1.35;;;;;;;16.43;50.74;99542.13;1807905;78;21502;-70
2021/05/03 10:18:41;;;;;;;2.50;1.50;;;;;;;16.32;50.68;99545.23;1821176;78;21089;-71
2021/05/03 10:21:10;;;;;;;1.80;1.32;;;;;;;16.23;51.25;99539.64;1815423;79;21149;-70
2021/05/03 10:23:41;;;;;;;1.65;1.22;;;;;;;16.21;51.82;99556.28;1816040;78;21110;-70
2021/05/03 10:26:08;;;;;;;2.02;1.30;;;;;;;16.18;51.68;99560.14;1802897;78;21136;-70
2021/05/03 10:28:52;;;;;;;4.10;1.20;;;;;;;16.16;51.18;99553.34;1798874;79;22104;-70
2021/05/03 10:31:21;;;;;;;2.33;1.32;;;;;;;16.00;51.13;99578.23;1802629;79;21102;-70
2021/05/03 10:33:49;;;;;;;2.92;1.47;;;;;;;15.76;51.55;99587.20;1818744;78;21113;-71
2021/05/03 10:36:36;;;;;;;4.92;1.45;;;;;;;15.56;52.05;99603.25;1770252;79;21176;-70
2021/05/03 10:39:29;;;;;;;1.70;1.20;;;;;;;15.31;51.50;99630.42;1798974;79;21055;-71
2021/05/03 10:42:07;;;;;;;4.42;1.30;;;;;;;14.93;52.08;99630.66;1798925;79;22084;-71
2021/05/03 10:44:38;;;;;;;4.33;1.20;;;;;;;14.58;52.75;99628.69;1788446;80;21085;-71
2021/05/03 10:47:34;;;;;;;1.60;1.25;;;;;;;14.33;53.76;99616.67;1797776;78;21213;-73
2021/05/03 10:49:58;;;;;;;2.08;1.27;;;;;;;14.13;54.71;99631.25;1829396;77;21109;-70
2021/05/03 10:52:37;;;;;;;3.47;1.50;;;;;;;13.93;55.65;99635.17;1811921;78;21177;-69
2021/05/03 10:55:05;;;;;;;2.58;1.50;;;;;;;13.83;56.02;99639.30;1779990;79;22106;-72
2021/05/03 10:57:35;;;;;;;2.60;1.55;;;;;;;13.77;56.99;99633.29;1801775;77;21065;-70
2021/05/03 11:00:08;;;;;;;2.92;1.50;;;;;;;13.65;57.21;99630.59;1798399;78;21074;-71
2021/05/03 11:02:45;;;;;;;1.95;1.30;;;;;;;13.46;57.03;99618.41;1798853;79;21078;-70
2021/05/03 11:05:24;;;;;;;2.20;1.27;;;;;;;13.32;57.98;99615.86;1805795;78;21094;-74
2021/05/03 11:08:09;;;;;;;4.17;1.30;;;;;;;13.20;58.37;99622.89;1814343;78;22057;-75
2021/05/03 11:11:05;;;;;;;1.30;1.12;;;;;;;13.08;58.47;99646.16;1873250;76;22623;-75
2021/05/03 11:13:57;;;;;;;3.80;1.50;;;;;;;12.87;58.94;99653.97;1820655;77;21601;-73
2021/05/03 11:16:32;;;;;;;3.25;1.42;;;;;;;12.74;59.21;99677.86;1789654;79;22648;-71
2021/05/03 11:19:04;;;;;;;2.98;2.10;;;;;;;12.63;59.76;99676.77;1827707;77;21097;-71
2021/05/03 11:21:45;;;;;;;3.05;1.40;;;;;;;12.54;60.05;99670.56;1817403;77;21125;-74
2021/05/03 11:27:14;;;;;;;1.82;1.45;;;;;;;12.36;60.98;99630.03;1882538;74;22684;-72
2021/05/03 11:29:41;;;;;;;6.30;1.60;;;;;;;12.28;61.41;99636.07;1839943;77;21059;-72
2021/05/03 11:32:06;;;;;;;2.65;1.60;;;;;;;12.24;61.82;99633.36;1855441;77;23307;-72
2021/05/03 11:34:39;;;;;;;3.17;1.65;;;;;;;12.24;62.73;99630.72;1775715;80;21089;-73
2021/05/03 11:37:08;;;;;;;2.55;1.70;;;;;;;12.22;62.70;99609.69;1735477;80;21069;-73
2021/05/03 11:39:57;;;;;;;3.15;1.70;;;;;;;12.23;62.92;99612.67;1817050;77;21065;-73
2021/05/03 11:42:42;;;;;;;3.20;1.90;;;;;;;12.26;63.49;99622.16;1793185;78;21053;-73
2021/05/03 11:44:58;;;;;;;3.72;1.98;;;;;;;12.34;63.21;99616.91;1814311;77;23378;-72
2021/05/03 11:47:31;;;;;;;2.55;1.72;;;;;;;12.42;63.08;99605.56;1790598;80;21107;-72
2021/05/03 11:49:58;;;;;;;6.42;1.47;;;;;;;12.51;62.88;99591.41;1783119;78;21145;-72
2021/05/03 11:52:31;;;;;;;3.42;2.25;;;;;;;12.57;61.91;99577.06;1774450;78;21523;-72